createdAt,value
2022-12-11T00:00:01.268Z,68.10
2022-12-11T00:10:27.373Z,80.47
2022-12-11T00:12:54.588Z,75.87
2022-12-11T00:15:22.808Z,59.83
2022-12-11T00:17:50.153Z,65.10
2022-12-11T00:20:18.073Z,77.57
2022-12-11T00:22:45.761Z,60.80
2022-12-11T00:25:13.576Z,64.17
2022-12-11T00:27:43.086Z,61.73
2022-12-11T00:35:16.020Z,59.90
2022-12-11T00:37:43.686Z,57.30
2022-12-11T00:40:11.882Z,47.17
2022-12-11T00:42:39.243Z,63.87
2022-12-11T00:45:07.752Z,48.47
2022-12-11T00:47:36.664Z,44.00
2022-12-11T00:50:04.654Z,52.73
2022-12-11T00:52:33.003Z,48.20
2022-12-11T01:00:06.866Z,60.83
2022-12-11T01:02:35.143Z,55.77
2022-12-11T01:05:02.825Z,49.23
2022-12-11T01:07:29.883Z,54.13
2022-12-11T01:10:14.819Z,49.03
2022-12-11T01:12:42.082Z,53.83
2022-12-11T01:15:12.029Z,55.30
2022-12-11T01:20:34.314Z,46.27
2022-12-11T01:23:01.764Z,44.53
2022-12-11T01:25:29.626Z,44.97
2022-12-11T01:27:56.943Z,43.33
2022-12-11T01:30:26.088Z,42.60
2022-12-11T01:32:53.302Z,46.10
2022-12-11T01:35:24.093Z,44.33
2022-12-11T01:37:52.653Z,46.10
2022-12-11T01:45:30.448Z,43.63
2022-12-11T01:48:02.448Z,35.60
2022-12-11T01:50:32.112Z,44.03
2022-12-11T01:52:59.815Z,47.23
2022-12-11T01:55:27.288Z,45.63
2022-12-11T01:57:55.365Z,50.87
2022-12-11T02:00:23.286Z,41.97
2022-12-11T02:06:37.545Z,44.27
2022-12-11T02:09:08.310Z,41.57
2022-12-11T02:11:53.305Z,53.20
2022-12-11T02:14:28.919Z,41.93
2022-12-11T02:17:00.782Z,53.83
2022-12-11T02:19:54.086Z,50.37
2022-12-11T02:30:17.995Z,46.97
2022-12-11T02:32:52.476Z,50.93
2022-12-11T02:35:23.692Z,43.07
2022-12-11T02:37:57.046Z,51.33
2022-12-11T02:40:28.559Z,50.10
2022-12-11T02:42:58.135Z,46.33
2022-12-11T02:45:29.187Z,52.50
2022-12-11T02:53:04.115Z,52.30
2022-12-11T02:55:35.972Z,54.97
2022-12-11T02:58:07.405Z,63.33
2022-12-11T03:00:35.956Z,51.70
2022-12-11T03:03:04.125Z,52.70
2022-12-11T03:05:31.777Z,40.37
2022-12-11T03:07:59.604Z,40.13
2022-12-11T03:13:07.712Z,40.83
2022-12-11T03:15:46.961Z,48.70
2022-12-11T03:18:20.054Z,51.37
2022-12-11T03:20:57.518Z,52.90
2022-12-11T03:23:33.219Z,44.30
2022-12-11T03:26:06.247Z,50.27
2022-12-11T03:28:43.134Z,42.67
2022-12-11T03:39:05.999Z,56.60
2022-12-11T03:41:35.554Z,43.83
2022-12-11T03:44:04.274Z,46.23
2022-12-11T03:46:34.269Z,43.53
2022-12-11T03:49:04.950Z,51.10
2022-12-11T03:54:26.410Z,48.00
2022-12-11T03:56:59.669Z,61.10
2022-12-11T04:04:33.059Z,88.40
2022-12-11T04:07:00.463Z,63.43
2022-12-11T04:09:27.818Z,67.97
2022-12-11T04:11:55.067Z,136.67
2022-12-11T04:14:40.808Z,92.27
2022-12-11T04:17:08.461Z,149.33
2022-12-11T04:19:54.919Z,164.47
2022-12-11T04:27:52.490Z,113.47
2022-12-11T04:30:22.793Z,185.47
2022-12-11T04:32:50.260Z,157.60
2022-12-11T04:35:17.918Z,141.27
2022-12-11T04:37:45.540Z,132.67
2022-12-11T04:40:15.739Z,189.50
2022-12-11T04:42:43.300Z,177.80
2022-12-11T04:45:13.770Z,159.00
2022-12-11T04:50:22.550Z,126.77
2022-12-11T04:52:50.450Z,129.90
2022-12-11T04:55:17.829Z,168.60
2022-12-11T04:57:45.352Z,135.83
2022-12-11T05:00:14.849Z,131.77
2022-12-11T05:02:43.111Z,162.33
2022-12-11T05:05:12.161Z,111.20
2022-12-11T05:07:41.801Z,182.47
2022-12-11T05:15:14.901Z,165.60
2022-12-11T05:17:42.260Z,189.27
2022-12-11T05:20:11.190Z,146.17
2022-12-11T05:22:39.484Z,173.57
2022-12-11T05:25:08.030Z,185.37
2022-12-11T05:27:35.731Z,112.37
2022-12-11T05:30:03.491Z,127.80
2022-12-11T05:32:32.335Z,164.80
2022-12-11T05:37:55.478Z,212.70
2022-12-11T05:40:22.903Z,184.10
2022-12-11T05:42:50.549Z,157.40
2022-12-11T05:45:18.321Z,78.77
2022-12-11T05:47:45.550Z,152.57
2022-12-11T05:50:14.568Z,95.73
2022-12-11T05:52:42.098Z,218.53
2022-12-11T06:00:15.480Z,72.70
2022-12-11T06:02:42.870Z,67.73
2022-12-11T06:05:11.593Z,100.07
2022-12-11T06:07:39.250Z,69.70
2022-12-11T06:10:07.621Z,79.63
2022-12-11T06:12:35.040Z,60.77
2022-12-11T06:15:02.710Z,99.13
2022-12-11T06:17:31.845Z,68.97
2022-12-11T06:27:55.771Z,74.97
2022-12-11T06:30:23.140Z,55.40
2022-12-11T06:33:05.555Z,89.90
2022-12-11T06:35:38.591Z,65.40
2022-12-11T06:38:09.141Z,80.87
2022-12-11T06:40:37.060Z,67.20
2022-12-11T06:43:05.392Z,43.97
2022-12-11T06:48:16.272Z,37.87
2022-12-11T06:50:45.439Z,38.07
2022-12-11T06:53:14.360Z,42.87
2022-12-11T06:55:42.449Z,50.50
2022-12-11T06:58:10.263Z,76.37
2022-12-11T07:00:38.462Z,94.00
2022-12-11T07:03:07.108Z,40.17
2022-12-11T07:08:29.824Z,58.07
2022-12-11T07:11:03.630Z,53.00
2022-12-11T07:13:33.858Z,41.17
2022-12-11T07:16:01.333Z,38.33
2022-12-11T07:18:29.405Z,33.30
2022-12-11T07:20:59.660Z,26.67
2022-12-11T07:23:27.761Z,27.60
2022-12-11T07:25:57.830Z,24.50
2022-12-11T07:33:30.500Z,36.40
2022-12-11T07:36:02.150Z,40.77
2022-12-11T07:38:29.908Z,42.53
2022-12-11T07:41:00.247Z,34.77
2022-12-11T07:43:27.579Z,33.63
2022-12-11T07:45:55.001Z,26.97
2022-12-11T07:48:22.690Z,31.17
2022-12-11T07:50:51.047Z,28.53
2022-12-11T07:58:39.212Z,46.13
2022-12-11T08:01:11.415Z,39.27
2022-12-11T08:03:39.414Z,44.03
2022-12-11T08:06:08.152Z,38.33
2022-12-11T08:08:36.391Z,51.03
2022-12-11T08:11:04.130Z,52.63
2022-12-11T08:13:32.111Z,67.03
2022-12-11T08:19:09.610Z,36.90
2022-12-11T08:21:36.869Z,29.00
2022-12-11T08:24:05.110Z,39.33
2022-12-11T08:26:32.527Z,33.70
2022-12-11T08:29:01.923Z,36.47
2022-12-11T08:31:31.190Z,32.33
2022-12-11T08:34:01.828Z,44.07
2022-12-11T08:41:34.840Z,39.87
2022-12-11T08:44:02.713Z,37.07
2022-12-11T08:46:32.392Z,44.57
2022-12-11T08:49:00.161Z,42.63
2022-12-11T08:51:29.161Z,47.17
2022-12-11T08:53:58.444Z,33.17
2022-12-11T08:56:27.242Z,33.57
2022-12-11T09:01:45.929Z,32.33
2022-12-11T09:04:15.861Z,25.93
2022-12-11T09:06:45.850Z,35.73
2022-12-11T09:09:14.551Z,42.33
2022-12-11T09:11:42.590Z,34.83
2022-12-11T09:14:10.299Z,43.30
2022-12-11T09:16:40.476Z,52.57
2022-12-11T09:21:52.810Z,64.20
2022-12-11T09:24:21.070Z,44.70
2022-12-11T09:26:48.791Z,37.43
2022-12-11T09:29:16.060Z,49.43
2022-12-11T09:31:45.880Z,52.00
2022-12-11T09:34:14.080Z,44.67
2022-12-11T09:36:44.171Z,42.30
2022-12-11T09:39:14.502Z,44.87
2022-12-11T09:46:49.234Z,49.90
2022-12-11T09:49:26.324Z,35.73
2022-12-11T09:52:04.078Z,33.90
2022-12-11T09:54:33.220Z,43.10
2022-12-11T09:57:09.738Z,34.07
2022-12-11T09:59:43.710Z,32.97
2022-12-11T10:02:25.152Z,54.83
2022-12-11T10:11:11.229Z,30.80
2022-12-11T10:13:49.049Z,31.33
2022-12-11T10:16:33.034Z,28.37
2022-12-11T10:19:04.042Z,35.80
2022-12-11T10:21:42.433Z,43.50
2022-12-11T10:24:33.780Z,32.10
2022-12-11T10:33:23.321Z,29.17
2022-12-11T10:35:55.883Z,31.73
2022-12-11T10:38:27.729Z,30.10
2022-12-11T10:40:59.643Z,29.70
2022-12-11T10:43:35.603Z,30.73
2022-12-11T10:46:04.351Z,24.47
2022-12-11T10:48:34.148Z,24.13
2022-12-11T10:51:04.950Z,22.93
2022-12-11T10:56:51.541Z,22.93
2022-12-11T10:59:25.439Z,22.63
2022-12-11T11:01:53.672Z,25.13
2022-12-11T11:04:26.739Z,20.93
2022-12-11T11:07:03.878Z,18.57
2022-12-11T11:09:36.379Z,21.57
2022-12-11T11:20:16.442Z,32.63
2022-12-11T11:22:47.344Z,30.27
2022-12-11T11:25:21.020Z,28.23
2022-12-11T11:27:55.346Z,29.33
2022-12-11T11:30:27.499Z,26.67
2022-12-11T11:33:01.291Z,28.43
2022-12-11T11:35:33.718Z,30.00
2022-12-11T11:43:58.560Z,31.70
2022-12-11T11:46:30.445Z,28.87
2022-12-11T11:49:06.691Z,26.67
2022-12-11T11:51:42.651Z,29.33
2022-12-11T11:54:21.630Z,31.77
2022-12-11T11:56:54.081Z,31.10
2022-12-11T11:59:30.474Z,25.37
2022-12-11T12:04:43.131Z,27.73
2022-12-11T12:07:28.728Z,20.87
2022-12-11T12:10:07.576Z,20.53
2022-12-11T12:12:44.600Z,24.50
2022-12-11T12:15:25.893Z,26.00
2022-12-11T12:17:57.101Z,22.53
2022-12-11T12:20:43.799Z,24.10
2022-12-11T12:28:56.100Z,25.73
2022-12-11T12:31:53.578Z,23.60
2022-12-11T12:34:35.328Z,36.70
2022-12-11T12:37:11.230Z,29.97
2022-12-11T12:39:47.149Z,24.07
2022-12-11T12:42:26.678Z,22.70
2022-12-11T12:45:01.138Z,24.43
2022-12-11T12:50:16.097Z,26.97
2022-12-11T12:52:46.148Z,21.33
2022-12-11T12:55:24.083Z,26.27
2022-12-11T12:57:55.131Z,26.70
2022-12-11T13:00:33.300Z,21.40
2022-12-11T13:03:04.348Z,26.23
2022-12-11T13:05:36.824Z,26.73
2022-12-11T13:08:06.681Z,22.60
2022-12-11T13:15:40.579Z,25.80
2022-12-11T13:18:34.629Z,21.33
2022-12-11T13:21:03.331Z,21.83
2022-12-11T13:23:35.901Z,25.10
2022-12-11T13:26:05.491Z,25.83
2022-12-11T13:28:52.080Z,26.20
2022-12-11T13:31:40.036Z,18.87
2022-12-11T13:39:22.167Z,28.37
2022-12-11T13:41:54.618Z,24.50
2022-12-11T13:44:27.078Z,29.30
2022-12-11T13:46:59.940Z,26.03
2022-12-11T13:49:33.698Z,31.93
2022-12-11T13:52:03.340Z,27.10
2022-12-11T13:54:41.608Z,26.70
2022-12-11T14:00:01.368Z,26.17
2022-12-11T14:02:35.438Z,23.10
2022-12-11T14:05:10.197Z,25.73
2022-12-11T14:07:47.991Z,29.03
2022-12-11T14:10:22.632Z,23.20
2022-12-11T14:12:55.589Z,23.70
2022-12-11T14:15:27.428Z,21.50
2022-12-11T14:23:20.029Z,26.03
2022-12-11T14:25:58.774Z,25.53
2022-12-11T14:28:32.019Z,27.00
2022-12-11T14:31:08.231Z,28.43
2022-12-11T14:33:43.052Z,23.20
2022-12-11T14:36:12.541Z,28.87
2022-12-11T14:38:50.808Z,22.10
2022-12-11T14:44:03.928Z,21.47
2022-12-11T14:46:41.090Z,20.13
2022-12-11T14:49:28.876Z,23.30
2022-12-11T14:52:03.649Z,22.07
2022-12-11T14:54:39.150Z,24.93
2022-12-11T14:57:14.621Z,19.20
2022-12-11T14:59:49.670Z,23.80
2022-12-11T15:08:00.761Z,20.83
2022-12-11T15:10:35.596Z,25.57
2022-12-11T15:13:06.078Z,22.77
2022-12-11T15:15:45.920Z,20.47
2022-12-11T15:18:25.858Z,21.07
2022-12-11T15:20:58.351Z,18.87
2022-12-11T15:23:33.049Z,17.70
2022-12-11T15:33:58.730Z,17.63
2022-12-11T15:36:33.758Z,18.33
2022-12-11T15:39:02.137Z,24.20
2022-12-11T15:41:33.448Z,18.97
2022-12-11T15:44:04.671Z,22.00
2022-12-11T15:46:39.096Z,18.40
2022-12-11T15:49:14.718Z,21.47
2022-12-11T15:51:43.659Z,17.93
2022-12-11T15:56:51.762Z,21.83
2022-12-11T15:59:22.935Z,28.10
2022-12-11T16:01:58.107Z,22.30
2022-12-11T16:04:27.730Z,20.67
2022-12-11T16:06:56.304Z,18.63
2022-12-11T16:09:25.999Z,19.33
2022-12-11T16:11:56.348Z,20.13
2022-12-11T16:14:26.292Z,18.13
2022-12-11T16:22:05.181Z,19.93
2022-12-11T16:24:34.647Z,20.93
2022-12-11T16:27:06.461Z,23.97
2022-12-11T16:29:37.612Z,20.03
2022-12-11T16:32:13.620Z,21.37
2022-12-11T16:34:45.991Z,20.57
2022-12-11T16:37:20.031Z,17.93
2022-12-11T16:45:42.778Z,24.63
2022-12-11T16:48:11.478Z,19.90
2022-12-11T16:50:43.343Z,22.47
2022-12-11T16:53:14.790Z,18.50
2022-12-11T16:55:48.451Z,21.73
2022-12-11T16:58:20.088Z,18.00
2022-12-11T17:00:54.342Z,18.03
2022-12-11T17:06:52.131Z,15.80
2022-12-11T17:09:21.073Z,15.70
2022-12-11T17:11:48.799Z,20.17
2022-12-11T17:14:17.121Z,16.50
2022-12-11T17:16:45.383Z,20.70
2022-12-11T17:19:14.318Z,23.23
2022-12-11T17:21:43.803Z,24.87
2022-12-11T17:24:16.528Z,25.43
2022-12-11T17:31:52.930Z,26.80
2022-12-11T17:34:22.090Z,28.17
2022-12-11T17:36:51.181Z,23.13
2022-12-11T17:39:25.630Z,24.97
2022-12-11T17:41:58.862Z,27.73
2022-12-11T17:44:30.821Z,30.80
2022-12-11T17:47:07.565Z,26.00
2022-12-11T17:49:41.060Z,29.10
2022-12-11T17:57:15.389Z,27.23
2022-12-11T17:59:43.171Z,29.10
2022-12-11T18:02:13.062Z,23.63
2022-12-11T18:04:43.901Z,30.90
2022-12-11T18:07:21.929Z,26.80
2022-12-11T18:09:54.875Z,27.03
2022-12-11T18:12:27.581Z,27.73
2022-12-11T18:18:25.834Z,34.63
2022-12-11T18:20:56.169Z,29.77
2022-12-11T18:23:27.398Z,35.80
2022-12-11T18:25:58.891Z,27.97
2022-12-11T18:28:27.118Z,26.47
2022-12-11T18:30:57.392Z,26.97
2022-12-11T18:33:28.577Z,28.13
2022-12-11T18:36:00.960Z,32.07
2022-12-11T18:43:32.219Z,33.83
2022-12-11T18:46:00.468Z,42.77
2022-12-11T18:48:28.480Z,33.33
2022-12-11T18:50:58.569Z,37.40
2022-12-11T18:53:27.030Z,30.10
2022-12-11T18:56:00.168Z,38.07
2022-12-11T18:58:29.970Z,33.77
2022-12-11T19:01:05.372Z,35.40
2022-12-11T19:06:19.420Z,37.73
2022-12-11T19:08:49.520Z,33.00
2022-12-11T19:11:21.160Z,26.77
2022-12-11T19:13:55.191Z,31.37
2022-12-11T19:16:30.856Z,31.53
2022-12-11T19:19:02.452Z,35.27
2022-12-11T19:21:31.663Z,33.33
2022-12-11T19:29:03.459Z,36.13
2022-12-11T19:31:37.822Z,37.40
2022-12-11T19:34:09.110Z,31.53
2022-12-11T19:36:43.761Z,32.43
2022-12-11T19:39:15.529Z,37.10
2022-12-11T19:41:48.624Z,32.10
2022-12-11T19:44:21.210Z,30.53
2022-12-11T19:54:53.528Z,36.53
2022-12-11T19:57:23.571Z,33.17
2022-12-11T20:00:01.728Z,25.13
2022-12-11T20:02:33.135Z,20.27
2022-12-11T20:05:03.810Z,18.37
2022-12-11T20:07:32.588Z,21.53
2022-12-11T20:10:11.273Z,25.63
2022-12-11T20:20:16.266Z,16.50
2022-12-11T20:22:48.778Z,27.23
2022-12-11T20:25:18.433Z,23.53
2022-12-11T20:27:51.209Z,18.70
2022-12-11T20:30:24.210Z,22.23
2022-12-11T20:32:52.678Z,23.33
2022-12-11T20:35:27.729Z,26.73
2022-12-11T20:37:56.230Z,19.57
2022-12-11T20:45:32.213Z,21.87
2022-12-11T20:48:00.292Z,20.50
2022-12-11T20:50:31.312Z,24.07
2022-12-11T20:53:34.979Z,24.80
2022-12-11T20:56:11.441Z,23.07
2022-12-11T20:58:41.669Z,26.10
2022-12-11T21:01:18.417Z,20.77
2022-12-11T21:03:46.500Z,17.67
2022-12-11T21:11:19.959Z,22.00
2022-12-11T21:13:47.708Z,19.40
2022-12-11T21:16:16.642Z,17.60
2022-12-11T21:18:45.944Z,14.83
2022-12-11T21:21:14.218Z,17.37
2022-12-11T21:23:42.250Z,18.97
2022-12-11T21:26:10.400Z,14.87
2022-12-11T21:28:39.020Z,20.63
2022-12-11T21:38:54.460Z,20.10
2022-12-11T21:41:25.093Z,20.63
2022-12-11T21:46:43.045Z,15.80
2022-12-11T21:49:11.878Z,15.63
2022-12-11T21:51:46.824Z,15.00
2022-12-11T21:54:17.721Z,19.13
2022-12-11T22:01:51.226Z,19.87
2022-12-11T22:04:20.501Z,18.23
2022-12-11T22:06:48.411Z,20.40
2022-12-11T22:09:18.430Z,19.37
2022-12-11T22:11:47.987Z,17.97
2022-12-11T22:14:17.681Z,27.23
2022-12-11T22:16:48.863Z,19.67
2022-12-11T22:22:16.360Z,19.30
2022-12-11T22:24:46.830Z,19.70
2022-12-11T22:27:16.830Z,22.83
2022-12-11T22:29:48.081Z,24.63
2022-12-11T22:32:16.445Z,21.10
2022-12-11T22:34:45.019Z,24.20
2022-12-11T22:37:12.399Z,22.83
2022-12-11T22:39:41.284Z,24.23
2022-12-11T22:47:14.811Z,28.93
2022-12-11T22:49:42.840Z,23.77
2022-12-11T22:52:11.352Z,28.00
2022-12-11T22:54:39.239Z,30.37
2022-12-11T22:57:08.018Z,34.60
2022-12-11T22:59:37.667Z,31.37
2022-12-11T23:02:04.929Z,36.20
2022-12-11T23:04:33.668Z,31.30
2022-12-11T23:12:10.690Z,33.00
2022-12-11T23:14:38.388Z,38.13
2022-12-11T23:17:05.713Z,42.23
2022-12-11T23:19:34.301Z,42.03
2022-12-11T23:22:01.521Z,51.13
2022-12-11T23:24:28.897Z,48.07
2022-12-11T23:26:56.265Z,42.50
2022-12-11T23:29:25.250Z,41.50
2022-12-11T23:39:54.800Z,45.73
2022-12-11T23:42:22.281Z,57.97
2022-12-11T23:44:51.349Z,53.23
2022-12-11T23:47:19.010Z,60.27
2022-12-11T23:49:46.377Z,50.90
2022-12-11T23:52:13.659Z,57.10
2022-12-11T23:54:41.010Z,58.20
2022-12-11T23:57:09.921Z,50.17
